Time;durP1;ratioP1;P1;durP2;ratioP2;P2;SDS_P1;SDS_P2;PMS_P1;PMS_P2;Temp;Humidity;BMP_temperature;BMP_pressure;BME280_temperature;BME280_humidity;BME280_pressure;Samples;Min_cycle;Max_cycle;Signal;HPM_P1;HPM_P2
2021/08/31 00:00:18;;;;;;;18.42;14.20;;;14.40;99.90;;;;;;6120040;23;20021;-68
2021/08/31 00:02:44;;;;;;;20.65;14.68;;;14.40;99.90;;;;;;6091243;23;20022;-68
2021/08/31 00:05:12;;;;;;;22.60;14.70;;;14.40;99.90;;;;;;6091533;23;20022;-68
2021/08/31 00:07:37;;;;;;;17.52;13.50;;;14.40;99.90;;;;;;6068409;23;20026;-68
2021/08/31 00:10:08;;;;;;;26.23;16.85;;;14.40;99.90;;;;;;6068830;23;20077;-68
2021/08/31 00:12:40;;;;;;;23.15;14.13;;;14.40;99.90;;;;;;6068764;23;20030;-68
2021/08/31 00:15:07;;;;;;;15.80;12.70;;;14.30;99.90;;;;;;6091732;23;20030;-68
2021/08/31 00:17:36;;;;;;;15.23;11.65;;;14.30;99.90;;;;;;6117708;23;20351;-68
2021/08/31 00:20:04;;;;;;;20.20;14.15;;;14.30;99.90;;;;;;6116641;23;20506;-68
2021/08/31 00:22:29;;;;;;;18.20;13.07;;;14.30;99.90;;;;;;6091563;23;20035;-68
2021/08/31 00:24:55;;;;;;;14.20;11.55;;;14.30;99.90;;;;;;6091760;23;20022;-68
2021/08/31 00:27:21;;;;;;;27.73;14.85;;;14.20;99.90;;;;;;6090587;23;20606;-68
2021/08/31 00:29:47;;;;;;;17.27;11.35;;;14.20;99.90;;;;;;6044124;23;20022;-68
2021/08/31 00:32:12;;;;;;;16.77;12.05;;;14.10;99.90;;;;;;6068273;23;20049;-68
2021/08/31 00:34:38;;;;;;;16.40;12.55;;;14.10;99.90;;;;;;6116647;23;20161;-68
2021/08/31 00:37:04;;;;;;;21.73;14.00;;;14.10;99.90;;;;;;6116734;23;20454;-68
2021/08/31 00:39:31;;;;;;;23.30;15.35;;;14.10;99.90;;;;;;6091963;23;20048;-68
2021/08/31 00:41:58;;;;;;;17.67;13.82;;;14.10;99.90;;;;;;6090373;23;20032;-68
2021/08/31 00:44:26;;;;;;;19.95;14.57;;;14.00;99.90;;;;;;6092554;23;20238;-69
2021/08/31 00:46:53;;;;;;;22.30;13.52;;;14.00;99.90;;;;;;6114702;23;20026;-68
2021/08/31 00:49:19;;;;;;;18.48;14.73;;;14.00;99.90;;;;;;6116257;23;20022;-68
2021/08/31 00:51:46;;;;;;;21.85;15.75;;;14.00;99.90;;;;;;6092432;23;20026;-68
2021/08/31 00:54:13;;;;;;;25.92;16.75;;;14.00;99.90;;;;;;6117445;23;20481;-68
2021/08/31 00:56:38;;;;;;;20.83;15.23;;;14.00;99.90;;;;;;6091571;23;20014;-68
2021/08/31 00:59:06;;;;;;;33.70;18.85;;;14.00;99.90;;;;;;6069069;23;20048;-68
2021/08/31 01:01:32;;;;;;;19.15;14.82;;;14.00;99.90;;;;;;6118556;23;20026;-68
2021/08/31 01:04:00;;;;;;;20.70;15.27;;;14.00;99.90;;;;;;6071172;23;20036;-68
2021/08/31 01:06:26;;;;;;;22.08;15.68;;;14.00;99.90;;;;;;6073925;23;20022;-68
2021/08/31 01:08:52;;;;;;;24.88;16.73;;;14.00;99.90;;;;;;6097090;23;20466;-68
2021/08/31 01:11:18;;;;;;;23.38;13.73;;;14.00;99.90;;;;;;6096392;23;20028;-68
2021/08/31 01:13:44;;;;;;;17.58;14.02;;;14.00;99.90;;;;;;6092569;23;20033;-68
2021/08/31 01:16:10;;;;;;;32.28;17.50;;;14.00;99.90;;;;;;6114681;23;20030;-68
2021/08/31 01:18:36;;;;;;;22.88;14.45;;;14.00;99.90;;;;;;6119164;23;20108;-68
2021/08/31 01:21:02;;;;;;;17.63;13.05;;;13.90;99.90;;;;;;6072736;23;20032;-68
2021/08/31 01:23:29;;;;;;;17.77;13.18;;;13.90;99.90;;;;;;6072016;23;20036;-68
2021/08/31 01:25:57;;;;;;;16.88;13.25;;;13.90;99.90;;;;;;6095957;23;20022;-68
2021/08/31 01:28:28;;;;;;;18.65;13.68;;;13.90;99.90;;;;;;6095431;23;20060;-68
2021/08/31 01:30:56;;;;;;;15.88;13.50;;;13.90;99.90;;;;;;6122486;23;20025;-68
2021/08/31 01:33:26;;;;;;;30.58;18.08;;;13.90;99.90;;;;;;6071882;23;20017;-69
2021/08/31 01:35:52;;;;;;;;;;;13.90;99.90;;;;;;6146203;23;20018;-69
2021/08/31 01:38:18;;;;;;;17.33;13.32;;;13.90;99.90;;;;;;6119856;23;19999;-69
2021/08/31 01:40:44;;;;;;;19.63;14.05;;;13.80;99.90;;;;;;6120635;23;20025;-69
2021/08/31 01:43:30;;;;;;;22.60;15.40;;;13.80;99.90;;;;;;6094384;23;20490;-70
2021/08/31 01:45:56;;;;;;;29.38;16.17;;;13.90;99.90;;;;;;6121517;23;20025;-69
2021/08/31 01:48:25;;;;;;;18.48;13.18;;;13.80;99.90;;;;;;6099994;23;20324;-69
2021/08/31 01:50:50;;;;;;;35.58;15.27;;;13.80;99.90;;;;;;6099187;23;20061;-68
2021/08/31 01:53:16;;;;;;;18.42;13.32;;;13.70;99.90;;;;;;6097626;23;20037;-68
2021/08/31 01:55:42;;;;;;;19.67;12.65;;;13.70;99.90;;;;;;6097891;23;20033;-69
2021/08/31 01:58:08;;;;;;;33.15;18.30;;;13.70;99.90;;;;;;6097844;23;20017;-68
2021/08/31 02:00:34;;;;;;;16.95;12.50;;;13.80;99.90;;;;;;6121662;23;20061;-68
2021/08/31 02:03:00;;;;;;;19.02;13.13;;;13.70;99.90;;;;;;6117419;23;20029;-68
2021/08/31 02:05:27;;;;;;;17.95;12.07;;;13.70;99.90;;;;;;6094897;23;20030;-68
2021/08/31 02:07:52;;;;;;;17.98;12.43;;;13.70;99.90;;;;;;6092980;23;20471;-69
2021/08/31 02:10:18;;;;;;;28.83;15.63;;;13.70;99.90;;;;;;6119267;23;20049;-68
2021/08/31 02:12:44;;;;;;;39.08;20.02;;;13.70;99.90;;;;;;6094840;23;20328;-68
2021/08/31 02:15:10;;;;;;;40.05;21.33;;;13.70;99.90;;;;;;6117772;23;20018;-68
2021/08/31 02:17:36;;;;;;;36.70;20.15;;;13.80;99.90;;;;;;6119735;23;20108;-68
2021/08/31 02:20:03;;;;;;;39.90;19.55;;;13.80;99.90;;;;;;6117651;23;20038;-68
2021/08/31 02:22:32;;;;;;;31.85;17.27;;;13.70;99.90;;;;;;6095506;23;20455;-68
2021/08/31 02:24:58;;;;;;;40.38;18.98;;;13.80;99.90;;;;;;6118159;23;20077;-68
2021/08/31 02:27:24;;;;;;;54.95;21.38;;;13.70;99.90;;;;;;6120208;23;20025;-68
2021/08/31 02:29:50;;;;;;;52.40;22.30;;;13.70;99.90;;;;;;6069232;23;20029;-68
2021/08/31 02:32:16;;;;;;;42.22;20.92;;;13.80;99.90;;;;;;6119375;23;20081;-68
2021/08/31 02:34:42;;;;;;;45.63;20.33;;;13.70;99.90;;;;;;6093380;23;20026;-68
2021/08/31 02:37:07;;;;;;;52.58;21.58;;;13.80;99.90;;;;;;6093993;23;20024;-69
2021/08/31 02:39:33;;;;;;;43.90;21.50;;;13.80;99.90;;;;;;6045715;23;20076;-69
2021/08/31 02:41:59;;;;;;;52.13;21.90;;;13.90;99.90;;;;;;6090420;23;20026;-69
2021/08/31 02:44:25;;;;;;;32.58;17.83;;;14.00;99.90;;;;;;6092994;23;20455;-69
2021/08/31 02:46:51;;;;;;;39.47;19.50;;;13.90;99.90;;;;;;6090600;23;20105;-68
2021/08/31 02:49:16;;;;;;;38.55;19.73;;;14.00;99.90;;;;;;6093058;23;20026;-69
2021/08/31 02:51:42;;;;;;;46.28;20.70;;;14.00;99.90;;;;;;6070957;23;20060;-69
2021/08/31 02:54:08;;;;;;;49.42;21.98;;;14.10;99.90;;;;;;6118716;23;20026;-68
2021/08/31 02:56:37;;;;;;;34.22;18.25;;;14.10;99.90;;;;;;6117804;23;20113;-68
2021/08/31 02:59:05;;;;;;;44.35;20.27;;;14.20;99.90;;;;;;6066696;23;20032;-68
2021/08/31 03:01:49;;;;;;;27.02;15.23;;;14.20;99.90;;;;;;6067145;23;20022;-68
2021/08/31 03:04:14;;;;;;;47.00;19.42;;;14.20;99.90;;;;;;6103046;23;20025;-68
2021/08/31 03:06:40;;;;;;;35.83;17.75;;;14.20;99.90;;;;;;6097240;23;20024;-68
2021/08/31 03:09:06;;;;;;;41.50;19.08;;;14.20;99.90;;;;;;6123219;23;20358;-68
2021/08/31 03:11:32;;;;;;;41.10;18.25;;;14.20;99.90;;;;;;6098916;23;20029;-69
2021/08/31 03:13:57;;;;;;;26.63;14.52;;;14.20;99.90;;;;;;6098080;23;20018;-68
2021/08/31 03:16:23;;;;;;;25.67;13.55;;;14.20;99.90;;;;;;6098007;23;20021;-69
2021/08/31 03:18:49;;;;;;;25.75;12.80;;;14.20;99.90;;;;;;6098924;23;20032;-68
2021/08/31 03:21:15;;;;;;;25.70;14.82;;;14.20;99.90;;;;;;6121708;23;20021;-68
2021/08/31 03:23:40;;;;;;;22.00;11.38;;;14.10;99.90;;;;;;6074634;23;20021;-68
2021/08/31 03:26:06;;;;;;;28.27;13.13;;;14.10;99.90;;;;;;6098125;23;20152;-69
2021/08/31 03:28:32;;;;;;;22.63;12.05;;;14.10;99.90;;;;;;6097143;23;20036;-69
2021/08/31 03:30:58;;;;;;;24.40;12.85;;;14.10;99.90;;;;;;6096901;23;20036;-69
2021/08/31 03:33:23;;;;;;;39.05;18.00;;;14.10;99.90;;;;;;6095848;23;20048;-69
2021/08/31 03:35:49;;;;;;;28.65;15.15;;;14.10;99.90;;;;;;6098292;23;20043;-69
2021/08/31 03:38:15;;;;;;;23.55;12.35;;;14.10;99.90;;;;;;6095369;23;20450;-69
2021/08/31 03:40:41;;;;;;;33.58;14.77;;;14.10;99.90;;;;;;6097985;23;20021;-69
2021/08/31 03:43:06;;;;;;;37.80;16.58;;;14.00;99.90;;;;;;6073087;23;20026;-69
2021/08/31 03:45:32;;;;;;;32.15;16.42;;;14.10;99.90;;;;;;6122962;23;20109;-68
2021/08/31 03:47:58;;;;;;;22.67;14.27;;;14.20;99.90;;;;;;6122825;23;20451;-69
2021/08/31 03:50:27;;;;;;;24.48;14.93;;;14.20;99.90;;;;;;6098358;23;20026;-69
2021/08/31 03:52:53;;;;;;;43.35;18.30;;;14.20;99.90;;;;;;6098854;23;20032;-69
2021/08/31 03:55:18;;;;;;;31.63;16.05;;;14.20;99.90;;;;;;6122105;23;20017;-69
2021/08/31 03:57:44;;;;;;;45.80;20.00;;;14.20;99.90;;;;;;6097857;23;20060;-69
2021/08/31 04:00:11;;;;;;;33.15;17.77;;;14.20;99.90;;;;;;6095389;23;20081;-69
2021/08/31 04:02:37;;;;;;;39.40;18.55;;;14.30;99.90;;;;;;6116723;23;20126;-69
2021/08/31 04:05:07;;;;;;;47.00;20.02;;;14.30;99.90;;;;;;6091544;23;20026;-68
2021/08/31 04:07:36;;;;;;;44.03;20.88;;;14.30;99.90;;;;;;6094618;23;20089;-69
2021/08/31 04:10:02;;;;;;;36.03;17.63;;;14.30;99.90;;;;;;6093445;23;20033;-69
2021/08/31 04:12:27;;;;;;;46.65;21.08;;;14.30;99.90;;;;;;6094145;23;20026;-69
2021/08/31 04:14:53;;;;;;;37.65;19.92;;;14.30;99.90;;;;;;6069532;23;20305;-69
2021/08/31 04:17:22;;;;;;;39.47;19.25;;;14.30;99.90;;;;;;6119255;23;20029;-69
2021/08/31 04:19:48;;;;;;;36.42;19.88;;;14.30;99.90;;;;;;6069533;23;20459;-69
2021/08/31 04:22:14;;;;;;;43.00;20.73;;;14.40;99.90;;;;;;6095072;23;20084;-69
2021/08/31 04:24:40;;;;;;;31.88;17.83;;;14.40;99.90;;;;;;6092930;23;20108;-68
2021/08/31 04:27:06;;;;;;;44.67;20.27;;;14.30;99.90;;;;;;6070840;23;20863;-68
2021/08/31 04:29:31;;;;;;;36.33;19.92;;;14.40;99.90;;;;;;6069945;23;20459;-68
2021/08/31 04:31:57;;;;;;;39.33;20.05;;;14.40;99.90;;;;;;6093170;23;20022;-68
2021/08/31 04:34:23;;;;;;;41.25;21.83;;;14.40;99.90;;;;;;6117435;23;20022;-69
2021/08/31 04:36:49;;;;;;;44.35;22.02;;;14.50;99.90;;;;;;6092888;23;20018;-68
2021/08/31 04:39:14;;;;;;;46.35;21.27;;;14.50;99.90;;;;;;6093818;23;20025;-68
2021/08/31 04:41:40;;;;;;;51.40;22.85;;;14.50;99.90;;;;;;6114066;23;20028;-68
2021/08/31 04:44:06;;;;;;;44.72;22.15;;;14.50;99.90;;;;;;6116671;23;20026;-69
2021/08/31 04:46:32;;;;;;;37.95;19.30;;;14.50;99.90;;;;;;6093883;23;20458;-68
2021/08/31 04:48:58;;;;;;;38.80;22.48;;;14.50;99.90;;;;;;6090599;23;20092;-68
2021/08/31 04:51:23;;;;;;;50.90;23.73;;;14.50;99.90;;;;;;6094743;23;20029;-68
2021/08/31 04:53:49;;;;;;;51.72;23.42;;;14.50;99.90;;;;;;6090574;23;20025;-68
2021/08/31 04:56:15;;;;;;;43.35;22.73;;;14.50;99.90;;;;;;6094877;23;20478;-68
2021/08/31 04:58:44;;;;;;;42.35;21.77;;;14.60;99.90;;;;;;6093175;23;20029;-69
2021/08/31 05:01:10;;;;;;;42.55;22.65;;;14.60;99.90;;;;;;6092956;23;20061;-69
2021/08/31 05:03:37;;;;;;;38.40;21.42;;;14.70;99.90;;;;;;6045499;23;20034;-69
2021/08/31 05:06:03;;;;;;;41.10;21.30;;;14.70;99.90;;;;;;6068825;23;20014;-69
2021/08/31 05:08:29;;;;;;;43.95;22.15;;;14.80;99.90;;;;;;6117347;23;20040;-69
2021/08/31 05:10:55;;;;;;;38.97;20.90;;;14.80;99.90;;;;;;6067736;23;20018;-69
2021/08/31 05:13:20;;;;;;;35.83;19.83;;;14.80;99.90;;;;;;6093394;23;20459;-69
2021/08/31 05:15:46;;;;;;;35.35;19.92;;;14.80;99.90;;;;;;6091772;23;20026;-69
2021/08/31 05:18:15;;;;;;;34.20;19.30;;;14.80;99.90;;;;;;6090094;23;20403;-69
2021/08/31 05:20:41;;;;;;;38.28;20.80;;;14.90;99.90;;;;;;6065985;23;20053;-69
2021/08/31 05:23:07;;;;;;;55.10;22.92;;;14.90;99.90;;;;;;6115386;23;20328;-69
2021/08/31 05:25:33;;;;;;;45.47;21.35;;;14.90;99.90;;;;;;6092904;23;20054;-69
2021/08/31 05:28:02;;;;;;;46.70;23.58;;;14.90;99.90;;;;;;6092864;23;20022;-69
2021/08/31 05:30:27;;;;;;;43.78;23.08;;;14.90;99.90;;;;;;6114131;23;20028;-69
2021/08/31 05:32:53;;;;;;;37.70;21.10;;;15.00;99.90;;;;;;6092199;23;20041;-69
2021/08/31 05:35:19;;;;;;;37.42;20.25;;;15.10;99.90;;;;;;6116912;23;20018;-69
2021/08/31 05:37:45;;;;;;;36.58;20.08;;;15.20;99.90;;;;;;6114933;23;20026;-69
2021/08/31 05:40:11;;;;;;;40.78;21.20;;;15.20;99.90;;;;;;6116462;23;20521;-69
2021/08/31 05:42:37;;;;;;;36.50;20.88;;;15.30;99.90;;;;;;6068445;23;20463;-69
2021/08/31 05:45:06;;;;;;;31.85;18.58;;;15.30;99.90;;;;;;6091042;23;20050;-69
2021/08/31 05:47:31;;;;;;;32.63;19.42;;;15.40;99.90;;;;;;6069541;23;20057;-69
2021/08/31 05:49:58;;;;;;;34.72;19.85;;;15.40;99.90;;;;;;6089678;23;20026;-69
2021/08/31 05:52:24;;;;;;;39.63;21.08;;;15.50;99.90;;;;;;6090831;23;20022;-69
2021/08/31 05:54:50;;;;;;;38.92;20.45;;;15.50;99.90;;;;;;6090356;23;20026;-70
2021/08/31 05:57:16;;;;;;;34.05;19.48;;;15.50;99.90;;;;;;6088759;23;20022;-69
2021/08/31 05:59:41;;;;;;;28.20;18.35;;;15.60;99.90;;;;;;6062157;23;20021;-69
2021/08/31 06:02:08;;;;;;;34.15;18.85;;;15.60;99.90;;;;;;6065397;23;20026;-69
2021/08/31 06:04:38;;;;;;;31.88;18.38;;;15.60;99.90;;;;;;6089618;23;20085;-69
2021/08/31 06:07:09;;;;;;;35.47;18.30;;;15.80;99.90;;;;;;6117094;23;20537;-70
2021/08/31 06:09:39;;;;;;;;;;;15.80;99.90;;;;;;6117339;23;20022;-69
2021/08/31 06:12:11;;;;;;;27.48;17.50;;;15.80;99.90;;;;;;6113962;23;19916;-70
2021/08/31 06:14:37;;;;;;;32.25;17.98;;;15.80;99.90;;;;;;6093732;23;20049;-69
2021/08/31 06:17:04;;;;;;;32.67;17.17;;;15.80;99.90;;;;;;6090143;23;20493;-69
2021/08/31 06:19:30;;;;;;;31.02;18.02;;;15.90;99.90;;;;;;6089755;23;20455;-69
2021/08/31 06:21:57;;;;;;;35.10;18.55;;;15.90;99.90;;;;;;6117579;23;20093;-69
2021/08/31 06:24:23;;;;;;;28.40;17.65;;;16.00;99.90;;;;;;6092821;23;20018;-69
2021/08/31 06:26:49;;;;;;;21.38;14.52;;;16.10;99.90;;;;;;6116930;23;20382;-69
2021/08/31 06:29:14;;;;;;;25.80;15.18;;;16.10;99.90;;;;;;6117654;23;20022;-68
2021/08/31 06:31:40;;;;;;;26.30;15.05;;;16.20;99.90;;;;;;6091038;23;20021;-69
2021/08/31 06:34:06;;;;;;;26.83;14.18;;;16.30;99.90;;;;;;6117861;23;20358;-68
2021/08/31 06:36:32;;;;;;;25.02;15.23;;;16.30;99.90;;;;;;6118154;23;20026;-69
2021/08/31 06:38:57;;;;;;;29.55;14.40;;;16.30;99.90;;;;;;6093442;23;20026;-69
2021/08/31 06:41:23;;;;;;;35.72;15.05;;;16.30;99.90;;;;;;6093222;23;20018;-69
2021/08/31 06:43:49;;;;;;;26.52;15.35;;;16.30;99.90;;;;;;6116235;23;20022;-68
2021/08/31 06:46:15;;;;;;;22.00;14.05;;;16.30;99.90;;;;;;6115813;23;20033;-69
2021/08/31 06:48:44;;;;;;;27.90;13.80;;;16.40;99.90;;;;;;6092001;23;20466;-69
2021/08/31 06:51:14;;;;;;;30.60;15.57;;;16.40;99.90;;;;;;6091823;23;20022;-69
2021/08/31 06:53:41;;;;;;;;;;;16.50;99.90;;;;;;6117898;23;20026;-69
2021/08/31 06:56:07;;;;;;;26.33;14.90;;;16.50;99.90;;;;;;6116696;23;20598;-69
2021/08/31 06:58:36;;;;;;;22.38;13.65;;;16.50;99.90;;;;;;6118870;23;20022;-69
2021/08/31 07:01:02;;;;;;;24.63;12.23;;;16.60;99.90;;;;;;6117221;23;20021;-69
2021/08/31 07:03:29;;;;;;;21.83;12.02;;;16.70;99.90;;;;;;6122860;23;20057;-69
2021/08/31 07:05:55;;;;;;;19.85;11.55;;;16.80;99.90;;;;;;6121132;23;20108;-70
2021/08/31 07:08:20;;;;;;;18.73;11.05;;;16.90;99.90;;;;;;6121739;23;20053;-69
2021/08/31 07:10:46;;;;;;;17.85;10.70;;;16.90;99.90;;;;;;6098926;23;20029;-68
2021/08/31 07:13:14;;;;;;;30.02;11.95;;;17.00;99.90;;;;;;6122831;23;20018;-69
2021/08/31 07:15:41;;;;;;;20.83;11.52;;;17.10;99.90;;;;;;6097657;23;20049;-69
2021/08/31 07:18:07;;;;;;;23.55;12.60;;;17.10;99.90;;;;;;6097027;23;20029;-69
2021/08/31 07:20:33;;;;;;;24.58;12.10;;;17.10;99.90;;;;;;6122922;23;20026;-68
2021/08/31 07:22:59;;;;;;;23.52;10.90;;;17.10;99.90;;;;;;6122326;23;20406;-69
2021/08/31 07:25:25;;;;;;;17.15;11.00;;;17.20;99.90;;;;;;6070845;23;20017;-70
2021/08/31 07:27:51;;;;;;;19.17;10.82;;;17.20;99.90;;;;;;6073483;23;20022;-69
2021/08/31 07:30:17;;;;;;;19.75;11.07;;;17.30;99.90;;;;;;6098618;23;20026;-69
2021/08/31 07:32:43;;;;;;;18.00;11.18;;;17.30;99.90;;;;;;6122782;23;20028;-70
2021/08/31 07:35:09;;;;;;;19.15;10.75;;;17.30;99.90;;;;;;6118014;23;20684;-70
2021/08/31 07:37:35;;;;;;;19.55;10.57;;;17.30;99.90;;;;;;6120308;23;20048;-70
2021/08/31 07:40:02;;;;;;;16.83;9.98;;;17.40;99.90;;;;;;6073366;23;20462;-69
2021/08/31 07:42:28;;;;;;;16.70;10.15;;;17.40;99.90;;;;;;6120115;23;20017;-69
2021/08/31 07:44:54;;;;;;;18.30;9.57;;;17.50;99.90;;;;;;6072737;23;20164;-70
2021/08/31 07:47:19;;;;;;;13.48;9.52;;;17.70;99.90;;;;;;6096250;23;20355;-70
2021/08/31 07:49:45;;;;;;;18.83;9.82;;;17.70;99.90;;;;;;6122572;23;20021;-70
2021/08/31 07:52:11;;;;;;;17.15;9.70;;;17.80;99.90;;;;;;6096179;23;20104;-70
2021/08/31 07:54:37;;;;;;;14.68;9.15;;;17.80;99.90;;;;;;6096748;23;20022;-70
2021/08/31 07:57:06;;;;;;;15.35;9.60;;;17.80;99.90;;;;;;6121131;23;20029;-70
2021/08/31 07:59:32;;;;;;;16.48;9.65;;;17.90;99.90;;;;;;6121199;23;20028;-70
2021/08/31 08:01:57;;;;;;;18.92;8.98;;;17.80;99.90;;;;;;6119855;23;20018;-70
2021/08/31 08:04:25;;;;;;;14.40;8.63;;;17.90;99.90;;;;;;6096593;23;20222;-71
2021/08/31 08:06:51;;;;;;;12.35;8.48;;;18.00;99.90;;;;;;6072613;23;20116;-70
2021/08/31 08:09:17;;;;;;;15.52;8.48;;;18.20;99.90;;;;;;6096081;23;20022;-70
2021/08/31 08:11:43;;;;;;;16.00;8.43;;;18.40;99.90;;;;;;6120934;23;20032;-70
2021/08/31 08:14:11;;;;;;;14.43;8.15;;;18.50;99.90;;;;;;6121315;23;20034;-70
2021/08/31 08:16:37;;;;;;;11.55;7.15;;;18.70;99.90;;;;;;6072660;23;20091;-70
2021/08/31 08:19:06;;;;;;;13.32;7.22;;;18.90;99.90;;;;;;6121032;23;20528;-70
2021/08/31 08:21:31;;;;;;;16.17;7.82;;;19.00;99.90;;;;;;6097344;23;20446;-69
2021/08/31 08:23:57;;;;;;;15.07;7.10;;;19.20;99.90;;;;;;6120653;23;20033;-70
2021/08/31 08:26:26;;;;;;;11.32;6.72;;;19.30;99.00;;;;;;6096252;23;20025;-70
2021/08/31 08:28:52;;;;;;;13.98;7.03;;;19.20;99.60;;;;;;6072413;23;20452;-70
2021/08/31 08:31:21;;;;;;;16.55;6.72;;;19.10;99.90;;;;;;6072178;23;20124;-71
2021/08/31 08:33:47;;;;;;;16.17;6.50;;;19.10;99.90;;;;;;6096264;23;20033;-70
2021/08/31 08:36:13;;;;;;;12.63;6.03;;;19.00;99.90;;;;;;6119118;23;20339;-70
2021/08/31 08:38:39;;;;;;;14.25;5.93;;;18.80;99.40;;;;;;6118751;23;20025;-70
2021/08/31 08:41:06;;;;;;;13.23;5.90;;;18.70;99.70;;;;;;6097190;23;20021;-69
2021/08/31 08:43:36;;;;;;;11.32;5.63;;;18.70;99.90;;;;;;6095075;23;20470;-69
2021/08/31 08:46:04;;;;;;;12.15;5.47;;;18.90;99.30;;;;;;6121371;23;20024;-70
2021/08/31 08:48:31;;;;;;;12.90;5.80;;;19.00;99.00;;;;;;6094674;23;20713;-70
2021/08/31 08:50:59;;;;;;;12.88;5.65;;;19.10;98.70;;;;;;6073003;23;20052;-69
2021/08/31 08:53:31;;;;;;;10.10;5.55;;;19.40;99.90;;;;;;6097448;23;20328;-69
2021/08/31 08:55:58;;;;;;;12.48;5.40;;;19.60;97.70;;;;;;6074392;23;20032;-69
2021/08/31 08:58:25;;;;;;;12.05;4.72;;;19.70;97.50;;;;;;6096714;23;20092;-68
2021/08/31 09:00:53;;;;;;;15.40;5.22;;;19.80;97.30;;;;;;6121333;23;20139;-69
2021/08/31 09:03:21;;;;;;;13.13;4.93;;;19.80;97.70;;;;;;6120819;23;20460;-69
2021/08/31 09:05:48;;;;;;;15.27;4.97;;;19.80;97.00;;;;;;6121923;23;20524;-69
2021/08/31 09:08:17;;;;;;;13.07;4.82;;;19.60;95.20;;;;;;6097130;23;20471;-70
2021/08/31 09:10:45;;;;;;;11.13;4.85;;;19.50;95.70;;;;;;6073222;23;20104;-69
2021/08/31 09:13:11;;;;;;;10.88;4.75;;;19.40;95.20;;;;;;6120234;23;20033;-70
2021/08/31 09:15:39;;;;;;;11.30;4.38;;;19.30;96.30;;;;;;6071688;23;20021;-69
2021/08/31 09:18:09;;;;;;;12.43;5.25;;;19.20;96.10;;;;;;6122167;23;20032;-69
2021/08/31 09:20:47;;;;;;;11.32;5.75;;;19.10;96.00;;;;;;6094701;23;20084;-69
2021/08/31 09:23:35;;;;;;;10.05;4.90;;;19.10;96.70;;;;;;6096520;23;20517;-69
2021/08/31 09:26:08;;;;;;;11.35;5.03;;;19.30;96.90;;;;;;6098098;23;20021;-69
2021/08/31 09:28:39;;;;;;;14.82;5.25;;;19.60;97.10;;;;;;6116225;23;20033;-69
2021/08/31 09:31:17;;;;;;;14.77;4.65;;;19.80;95.40;;;;;;6121427;23;20458;-70
2021/08/31 09:33:47;;;;;;;15.43;5.18;;;20.00;96.60;;;;;;6120607;23;20058;-70
2021/08/31 09:36:22;;;;;;;12.20;5.18;;;20.20;96.90;;;;;;6119602;23;20088;-70
2021/08/31 09:39:05;;;;;;;14.55;5.10;;;20.20;96.40;;;;;;6119883;23;20415;-70
2021/08/31 09:41:40;;;;;;;14.27;4.72;;;20.10;95.30;;;;;;6121173;23;20022;-69
2021/08/31 09:44:19;;;;;;;11.90;4.93;;;20.00;95.60;;;;;;6094622;23;20017;-71
2021/08/31 09:46:59;;;;;;;11.40;4.68;;;20.00;94.30;;;;;;6095738;23;20113;-70
2021/08/31 09:49:24;;;;;;;;;;;20.30;95.50;;;;;;6097122;23;20021;-69
2021/08/31 09:52:10;;;;;;;12.57;5.10;;;20.60;93.90;;;;;;6095323;23;19958;-70
2021/08/31 09:54:43;;;;;;;13.18;5.53;;;20.60;93.50;;;;;;6093984;23;20025;-70
2021/08/31 09:57:30;;;;;;;12.00;5.32;;;20.40;94.10;;;;;;6119029;23;20025;-70
2021/08/31 09:59:58;;;;;;;11.60;5.07;;;20.40;94.70;;;;;;6121771;23;20311;-70
2021/08/31 10:02:24;;;;;;;11.35;5.18;;;20.40;94.00;;;;;;6088855;23;20021;-71
2021/08/31 10:04:55;;;;;;;14.20;5.20;;;20.30;92.50;;;;;;6091283;23;20026;-71
2021/08/31 10:07:23;;;;;;;11.00;4.68;;;20.00;93.50;;;;;;6117332;23;20032;-71
2021/08/31 10:09:50;;;;;;;10.23;4.57;;;19.90;93.20;;;;;;6116890;23;20057;-70
2021/08/31 10:12:20;;;;;;;14.55;5.45;;;19.80;94.00;;;;;;6094154;23;20105;-70
2021/08/31 10:14:50;;;;;;;13.35;5.72;;;19.80;94.40;;;;;;6118329;23;20022;-69
2021/08/31 10:17:19;;;;;;;16.10;5.00;;;19.80;93.90;;;;;;6113406;23;20036;-71
2021/08/31 10:19:48;;;;;;;12.05;5.45;;;20.10;93.40;;;;;;6115894;23;20026;-70
2021/08/31 10:22:16;;;;;;;11.20;5.53;;;20.30;92.50;;;;;;6092275;23;20037;-70
2021/08/31 10:24:43;;;;;;;15.73;5.90;;;20.20;93.80;;;;;;6090939;23;20128;-70
2021/08/31 10:27:27;;;;;;;12.02;5.05;;;19.90;94.20;;;;;;6117817;23;20109;-70
2021/08/31 10:30:19;;;;;;;15.95;5.40;;;19.80;94.90;;;;;;6117717;23;20026;-69
2021/08/31 10:32:47;;;;;;;13.13;4.85;;;19.70;96.40;;;;;;6117701;23;20037;-70
2021/08/31 10:35:32;;;;;;;14.75;5.28;;;19.70;97.00;;;;;;6093040;23;20025;-69
2021/08/31 10:38:06;;;;;;;16.27;5.20;;;20.10;94.10;;;;;;6116299;23;20387;-70
2021/08/31 10:40:36;;;;;;;13.25;5.25;;;20.30;93.80;;;;;;6116910;23;20022;-70
2021/08/31 10:43:04;;;;;;;12.35;4.50;;;20.30;93.70;;;;;;6093853;23;20820;-70
2021/08/31 10:45:32;;;;;;;12.20;4.88;;;20.30;92.40;;;;;;6092682;23;20018;-70
2021/08/31 10:47:58;;;;;;;12.27;4.85;;;20.20;93.00;;;;;;6092573;23;20030;-70
2021/08/31 10:50:32;;;;;;;11.98;4.82;;;20.20;93.60;;;;;;6118584;23;20046;-69
2021/08/31 10:53:06;;;;;;;11.20;5.00;;;20.50;93.20;;;;;;6117429;23;20033;-70
2021/08/31 10:55:35;;;;;;;12.48;4.88;;;20.70;90.90;;;;;;6119254;23;20093;-70
2021/08/31 10:58:04;;;;;;;12.63;4.73;;;20.60;92.00;;;;;;6085454;23;20022;-70
2021/08/31 11:00:30;;;;;;;14.65;4.55;;;20.50;91.60;;;;;;6087354;23;20059;-70
2021/08/31 11:02:59;;;;;;;10.52;4.60;;;20.50;92.20;;;;;;6086780;23;20456;-70
2021/08/31 11:05:27;;;;;;;13.93;4.40;;;20.60;92.80;;;;;;6086367;23;20408;-69
2021/08/31 11:08:13;;;;;;;10.80;4.63;;;20.80;91.70;;;;;;6086140;23;21004;-69
2021/08/31 11:10:44;;;;;;;12.65;4.35;;;21.00;91.90;;;;;;6084614;23;20037;-71
2021/08/31 11:13:18;;;;;;;11.75;4.53;;;21.00;90.50;;;;;;6085421;23;20414;-70
2021/08/31 11:15:48;;;;;;;13.95;5.07;;;21.20;90.30;;;;;;6084610;23;20509;-70
2021/08/31 11:18:16;;;;;;;12.80;4.45;;;21.10;90.60;;;;;;6063429;23;20030;-70
2021/08/31 11:20:45;;;;;;;11.77;5.13;;;21.00;90.60;;;;;;6088680;23;20029;-70
2021/08/31 11:23:19;;;;;;;12.50;4.82;;;20.90;91.50;;;;;;6085160;23;20360;-68
2021/08/31 11:25:57;;;;;;;11.13;4.10;;;21.00;91.10;;;;;;6063212;23;20129;-67
2021/08/31 11:28:27;;;;;;;11.88;4.47;;;21.10;91.20;;;;;;6035738;23;20483;-67
2021/08/31 11:31:05;;;;;;;12.95;5.22;;;21.40;90.40;;;;;;6089028;23;20119;-69
2021/08/31 11:33:32;;;;;;;11.57;4.78;;;21.60;88.30;;;;;;6084755;23;20090;-69
2021/08/31 11:36:07;;;;;;;12.82;4.75;;;21.40;90.60;;;;;;6075050;23;20029;-69
2021/08/31 11:38:36;;;;;;;12.85;5.13;;;21.20;90.70;;;;;;6116271;23;20026;-69
2021/08/31 11:41:22;;;;;;;13.63;4.63;;;21.00;91.50;;;;;;6116713;23;20025;-69
2021/08/31 11:44:14;;;;;;;19.05;5.28;;;20.80;92.30;;;;;;6118123;23;20538;-69
2021/08/31 11:46:44;;;;;;;16.98;5.13;;;20.60;92.70;;;;;;6110747;23;20024;-70
2021/08/31 11:49:17;;;;;;;12.32;5.30;;;20.60;92.80;;;;;;6117392;23;20022;-69
2021/08/31 11:52:06;;;;;;;11.65;4.30;;;20.70;91.40;;;;;;6092673;23;20022;-69
2021/08/31 11:54:43;;;;;;;13.15;5.25;;;20.80;92.00;;;;;;6118044;23;20035;-69
2021/08/31 11:57:11;;;;;;;12.60;5.00;;;21.10;91.50;;;;;;6091147;23;20022;-69
2021/08/31 11:59:50;;;;;;;12.82;4.35;;;21.10;90.00;;;;;;6091451;23;20324;-69
2021/08/31 12:02:18;;;;;;;15.25;5.57;;;21.00;90.10;;;;;;6120361;23;20026;-69
2021/08/31 12:05:06;;;;;;;13.38;4.63;;;20.80;89.50;;;;;;6118038;23;20092;-69
2021/08/31 12:08:01;;;;;;;11.38;4.95;;;20.60;91.10;;;;;;6118631;23;20346;-68
2021/08/31 12:10:27;;;;;;;13.30;4.97;;;20.60;91.90;;;;;;6084485;23;20029;-68
2021/08/31 12:12:54;;;;;;;12.23;4.55;;;20.50;91.60;;;;;;6123044;23;20092;-68
2021/08/31 12:15:24;;;;;;;13.65;5.05;;;20.40;92.40;;;;;;6096105;23;20021;-68
2021/08/31 12:18:00;;;;;;;12.15;4.50;;;20.30;93.10;;;;;;6123160;23;20025;-68
2021/08/31 12:20:30;;;;;;;12.35;4.60;;;20.30;93.80;;;;;;6121701;23;20481;-68
2021/08/31 12:23:01;;;;;;;14.27;4.80;;;20.30;93.40;;;;;;6097234;23;20080;-69
2021/08/31 12:25:43;;;;;;;16.48;4.88;;;20.30;93.40;;;;;;6121592;23;20025;-68
2021/08/31 12:28:10;;;;;;;12.65;4.50;;;20.20;93.80;;;;;;6121337;23;20026;-70
2021/08/31 12:30:44;;;;;;;11.98;4.35;;;20.20;93.20;;;;;;6120829;23;20026;-69
2021/08/31 12:33:12;;;;;;;10.13;4.35;;;20.20;92.30;;;;;;6094573;23;20021;-70
2021/08/31 12:35:45;;;;;;;13.85;4.10;;;20.00;92.50;;;;;;6097998;23;20048;-68
2021/08/31 12:38:17;;;;;;;11.18;3.85;;;19.90;93.30;;;;;;6096536;23;20060;-80